Terminal Aerodrome Forecast
Issued by NWS

Home | Current Version | Previous Version | Text Only | Print | Product List | Glossary On
Versions: 1 2 3 4 5 6 7 8 9 10 11 12 13 14 15 16 17
357
FTUS43 KDTX 222131 AAA
TAFDET
TAF AMD
KDET 222131Z 2222/2318 23018G28KT P6SM VCSH SCT050 BKN120
     FM230000 20015KT P6SM SCT050 BKN100
     FM230600 19012KT P6SM BKN050 PROB30 2309/2312 4SM TSRA BKN035CB
      OVC050=

USA.gov is the U.S. government's official web portal to all federal, state and local government web resources and services.